sensor_id;sensor_type;location;lat;lon;timestamp;temperature;humidity
1055;DHT22;516;51.482;7.120;2024-03-22T14:34:58;21.90;1.00
1055;DHT22;516;51.482;7.120;2024-03-22T14:37:23;21.90;1.00
1055;DHT22;516;51.482;7.120;2024-03-22T14:39:49;21.90;1.00
1055;DHT22;516;51.482;7.120;2024-03-22T14:42:15;21.90;1.00
1055;DHT22;516;51.482;7.120;2024-03-22T14:44:41;21.90;1.00
1055;DHT22;516;51.482;7.120;2024-03-22T14:47:07;21.90;1.00
1055;DHT22;516;51.482;7.120;2024-03-22T14:49:32;21.90;1.00
1055;DHT22;516;51.482;7.120;2024-03-22T14:51:58;22.00;1.00
1055;DHT22;516;51.482;7.120;2024-03-22T14:54:24;22.00;1.00
1055;DHT22;516;51.482;7.120;2024-03-22T14:56:51;22.00;1.00
1055;DHT22;516;51.482;7.120;2024-03-22T14:59:19;22.00;1.00
1055;DHT22;516;51.482;7.120;2024-03-22T15:01:45;22.00;1.00
1055;DHT22;516;51.482;7.120;2024-03-22T15:04:11;22.00;1.00
1055;DHT22;516;51.482;7.120;2024-03-22T15:06:37;22.00;1.00
1055;DHT22;516;51.482;7.120;2024-03-22T15:09:04;22.00;1.00
1055;DHT22;516;51.482;7.120;2024-03-22T15:11:35;22.00;1.00
1055;DHT22;516;51.482;7.120;2024-03-22T15:14:01;22.00;1.00
1055;DHT22;516;51.482;7.120;2024-03-22T15:16:28;22.00;1.00
1055;DHT22;516;51.482;7.120;2024-03-22T15:18:54;22.00;1.00
1055;DHT22;516;51.482;7.120;2024-03-22T15:21:20;22.10;1.00
1055;DHT22;516;51.482;7.120;2024-03-22T15:23:46;22.10;1.00
1055;DHT22;516;51.482;7.120;2024-03-22T15:26:12;22.10;1.00
1055;DHT22;516;51.482;7.120;2024-03-22T15:28:38;22.10;1.00
1055;DHT22;516;51.482;7.120;2024-03-22T15:31:06;22.10;1.00
1055;DHT22;516;51.482;7.120;2024-03-22T15:33:32;22.00;1.00
1055;DHT22;516;51.482;7.120;2024-03-22T15:35:58;22.00;1.00
1055;DHT22;516;51.482;7.120;2024-03-22T15:38:24;22.00;1.00
1055;DHT22;516;51.482;7.120;2024-03-22T15:40:50;22.00;1.00
1055;DHT22;516;51.482;7.120;2024-03-22T15:43:17;22.00;1.00
1055;DHT22;516;51.482;7.120;2024-03-22T15:45:43;22.00;1.00
1055;DHT22;516;51.482;7.120;2024-03-22T15:48:09;22.00;1.00
1055;DHT22;516;51.482;7.120;2024-03-22T15:50:35;22.00;1.00
1055;DHT22;516;51.482;7.120;2024-03-22T15:53:02;22.10;1.00
1055;DHT22;516;51.482;7.120;2024-03-22T15:55:28;22.10;1.00
1055;DHT22;516;51.482;7.120;2024-03-22T15:57:55;22.10;1.00
1055;DHT22;516;51.482;7.120;2024-03-22T16:00:22;22.00;1.00
1055;DHT22;516;51.482;7.120;2024-03-22T16:02:48;22.00;1.00
1055;DHT22;516;51.482;7.120;2024-03-22T16:05:17;22.00;1.00
1055;DHT22;516;51.482;7.120;2024-03-22T16:07:46;22.00;1.00
1055;DHT22;516;51.482;7.120;2024-03-22T16:10:13;22.00;1.00
1055;DHT22;516;51.482;7.120;2024-03-22T16:12:39;22.00;1.00
1055;DHT22;516;51.482;7.120;2024-03-22T16:15:05;22.00;1.00
1055;DHT22;516;51.482;7.120;2024-03-22T16:17:32;22.00;1.00
1055;DHT22;516;51.482;7.120;2024-03-22T16:19:57;22.00;1.00
1055;DHT22;516;51.482;7.120;2024-03-22T16:22:23;22.00;1.00
1055;DHT22;516;51.482;7.120;2024-03-22T16:24:50;22.00;1.00
1055;DHT22;516;51.482;7.120;2024-03-22T16:27:16;22.00;1.00
1055;DHT22;516;51.482;7.120;2024-03-22T16:29:41;22.00;1.00
1055;DHT22;516;51.482;7.120;2024-03-22T16:32:07;22.30;1.00
1055;DHT22;516;51.482;7.120;2024-03-22T16:34:36;22.50;1.00
1055;DHT22;516;51.482;7.120;2024-03-22T16:37:02;22.70;1.00
1055;DHT22;516;51.482;7.120;2024-03-22T16:39:28;22.80;1.00
1055;DHT22;516;51.482;7.120;2024-03-22T16:41:54;22.80;1.00
1055;DHT22;516;51.482;7.120;2024-03-22T16:44:19;22.80;1.00
1055;DHT22;516;51.482;7.120;2024-03-22T16:46:45;23.00;1.00
1055;DHT22;516;51.482;7.120;2024-03-22T16:49:11;23.20;1.00
1055;DHT22;516;51.482;7.120;2024-03-22T16:51:36;23.50;1.00
1055;DHT22;516;51.482;7.120;2024-03-22T16:54:03;23.70;1.00
1055;DHT22;516;51.482;7.120;2024-03-22T16:56:30;24.00;1.00
1055;DHT22;516;51.482;7.120;2024-03-22T16:58:56;24.20;1.00
1055;DHT22;516;51.482;7.120;2024-03-22T17:01:22;24.30;1.00
1055;DHT22;516;51.482;7.120;2024-03-22T17:03:47;24.50;1.00
1055;DHT22;516;51.482;7.120;2024-03-22T17:06:13;24.60;1.00
1055;DHT22;516;51.482;7.120;2024-03-22T17:08:39;24.80;1.00
1055;DHT22;516;51.482;7.120;2024-03-22T17:11:05;25.00;1.00
1055;DHT22;516;51.482;7.120;2024-03-22T17:13:31;25.30;1.00
1055;DHT22;516;51.482;7.120;2024-03-22T17:15:57;25.50;1.00
1055;DHT22;516;51.482;7.120;2024-03-22T17:18:27;25.80;1.00
1055;DHT22;516;51.482;7.120;2024-03-22T17:20:53;26.00;1.00
1055;DHT22;516;51.482;7.120;2024-03-22T17:23:19;26.20;1.00
1055;DHT22;516;51.482;7.120;2024-03-22T17:25:45;26.40;1.00
1055;DHT22;516;51.482;7.120;2024-03-22T17:28:10;26.50;1.00
1055;DHT22;516;51.482;7.120;2024-03-22T17:30:36;26.70;1.00
1055;DHT22;516;51.482;7.120;2024-03-22T17:33:02;26.90;1.00
1055;DHT22;516;51.482;7.120;2024-03-22T17:35:29;27.20;1.00
1055;DHT22;516;51.482;7.120;2024-03-22T17:37:56;27.40;1.00
1055;DHT22;516;51.482;7.120;2024-03-22T17:40:25;27.70;1.00
1055;DHT22;516;51.482;7.120;2024-03-22T17:42:51;27.90;1.00
1055;DHT22;516;51.482;7.120;2024-03-22T17:45:17;28.10;1.00
1055;DHT22;516;51.482;7.120;2024-03-22T17:47:45;28.30;1.00
1055;DHT22;516;51.482;7.120;2024-03-22T17:50:11;28.40;1.00
1055;DHT22;516;51.482;7.120;2024-03-22T17:52:37;28.50;1.00
1055;DHT22;516;51.482;7.120;2024-03-22T17:55:04;28.60;1.00
1055;DHT22;516;51.482;7.120;2024-03-22T17:57:30;28.70;1.00
1055;DHT22;516;51.482;7.120;2024-03-22T17:59:57;28.80;1.00
1055;DHT22;516;51.482;7.120;2024-03-22T18:02:23;28.80;1.00
1055;DHT22;516;51.482;7.120;2024-03-22T18:04:49;28.70;1.00
1055;DHT22;516;51.482;7.120;2024-03-22T18:07:14;28.60;1.00
1055;DHT22;516;51.482;7.120;2024-03-22T18:09:40;28.50;1.00
1055;DHT22;516;51.482;7.120;2024-03-22T18:12:06;28.50;1.00
1055;DHT22;516;51.482;7.120;2024-03-22T18:14:32;28.60;1.00
1055;DHT22;516;51.482;7.120;2024-03-22T18:16:59;28.70;1.00
1055;DHT22;516;51.482;7.120;2024-03-22T18:19:26;28.80;1.00
1055;DHT22;516;51.482;7.120;2024-03-22T18:21:52;28.90;1.00
1055;DHT22;516;51.482;7.120;2024-03-22T18:24:21;28.90;1.00
1055;DHT22;516;51.482;7.120;2024-03-22T18:26:47;28.90;1.00
1055;DHT22;516;51.482;7.120;2024-03-22T18:29:13;28.90;1.00
1055;DHT22;516;51.482;7.120;2024-03-22T18:31:38;28.80;1.00
1055;DHT22;516;51.482;7.120;2024-03-22T18:34:05;28.80;1.00
1055;DHT22;516;51.482;7.120;2024-03-22T18:36:30;28.80;1.00
1055;DHT22;516;51.482;7.120;2024-03-22T18:38:56;28.80;1.00
1055;DHT22;516;51.482;7.120;2024-03-22T18:41:23;28.80;1.00
1055;DHT22;516;51.482;7.120;2024-03-22T18:43:48;28.80;1.00
1055;DHT22;516;51.482;7.120;2024-03-22T18:46:17;28.80;1.00
1055;DHT22;516;51.482;7.120;2024-03-22T18:48:43;28.80;1.00
1055;DHT22;516;51.482;7.120;2024-03-22T18:51:09;28.70;1.00
1055;DHT22;516;51.482;7.120;2024-03-22T18:53:36;28.60;1.00
1055;DHT22;516;51.482;7.120;2024-03-22T18:56:02;28.50;1.00
1055;DHT22;516;51.482;7.120;2024-03-22T18:58:31;28.40;1.00
1055;DHT22;516;51.482;7.120;2024-03-22T19:00:56;28.50;1.00
1055;DHT22;516;51.482;7.120;2024-03-22T19:03:22;28.60;1.00
1055;DHT22;516;51.482;7.120;2024-03-22T19:05:48;28.60;1.00
1055;DHT22;516;51.482;7.120;2024-03-22T19:08:15;28.80;1.00
1055;DHT22;516;51.482;7.120;2024-03-22T19:10:40;28.90;1.00
1055;DHT22;516;51.482;7.120;2024-03-22T19:13:07;28.90;1.00
1055;DHT22;516;51.482;7.120;2024-03-22T19:15:32;29.00;1.00
1055;DHT22;516;51.482;7.120;2024-03-22T19:17:59;29.10;1.00
1055;DHT22;516;51.482;7.120;2024-03-22T19:20:26;29.20;1.00
1055;DHT22;516;51.482;7.120;2024-03-22T19:22:52;29.20;1.00
1055;DHT22;516;51.482;7.120;2024-03-22T19:25:18;29.20;1.00
1055;DHT22;516;51.482;7.120;2024-03-22T19:27:44;29.20;1.00
1055;DHT22;516;51.482;7.120;2024-03-22T19:30:10;29.20;1.00
1055;DHT22;516;51.482;7.120;2024-03-22T19:32:36;29.10;1.00
1055;DHT22;516;51.482;7.120;2024-03-22T19:35:03;29.20;1.00
1055;DHT22;516;51.482;7.120;2024-03-22T19:37:29;29.00;1.00
1055;DHT22;516;51.482;7.120;2024-03-22T19:39:54;29.00;1.00
1055;DHT22;516;51.482;7.120;2024-03-22T19:42:20;28.90;1.00
1055;DHT22;516;51.482;7.120;2024-03-22T19:44:47;28.90;1.00
1055;DHT22;516;51.482;7.120;2024-03-22T19:47:14;28.90;1.00
1055;DHT22;516;51.482;7.120;2024-03-22T19:49:40;28.90;1.00
1055;DHT22;516;51.482;7.120;2024-03-22T19:52:06;28.80;1.00
1055;DHT22;516;51.482;7.120;2024-03-22T19:54:32;28.80;1.00
1055;DHT22;516;51.482;7.120;2024-03-22T19:56:58;28.70;1.00
1055;DHT22;516;51.482;7.120;2024-03-22T19:59:24;28.70;1.00
1055;DHT22;516;51.482;7.120;2024-03-22T20:01:50;28.60;1.00
1055;DHT22;516;51.482;7.120;2024-03-22T20:04:17;28.60;1.00
1055;DHT22;516;51.482;7.120;2024-03-22T20:06:43;28.60;1.00
1055;DHT22;516;51.482;7.120;2024-03-22T20:09:10;28.70;1.00
1055;DHT22;516;51.482;7.120;2024-03-22T20:11:37;28.70;1.00
1055;DHT22;516;51.482;7.120;2024-03-22T20:14:03;28.80;1.00
1055;DHT22;516;51.482;7.120;2024-03-22T20:16:29;28.80;1.00
1055;DHT22;516;51.482;7.120;2024-03-22T20:18:55;28.90;1.00
1055;DHT22;516;51.482;7.120;2024-03-22T20:21:21;29.00;1.00
1055;DHT22;516;51.482;7.120;2024-03-22T20:23:46;29.10;1.00
1055;DHT22;516;51.482;7.120;2024-03-22T20:26:12;29.20;1.00
1055;DHT22;516;51.482;7.120;2024-03-22T20:28:38;29.20;1.00
1055;DHT22;516;51.482;7.120;2024-03-22T20:31:03;29.20;1.00
1055;DHT22;516;51.482;7.120;2024-03-22T20:33:29;29.20;1.00
1055;DHT22;516;51.482;7.120;2024-03-22T20:35:55;29.20;1.00
